Terminal Aerodrome Forecast
Issued by NWS

Home | Current Version | Previous Version | Graphics & Text | Print | Product List | Glossary On
Versions: 1 2 3 4 5 6 7 8 9 10 11 12 13 14 15 16 17 18 19 20 21
543
FTUS43 KGRB 242145 AAA
TAFCWA
TAF AMD
KCWA 242145Z 2422/2518 27010KT P6SM BKN050
     FM250100 27004KT P6SM SCT030 BKN080
     FM250400 VRB03KT P6SM SCT012 BKN250
      TEMPO 2508/2512 4SM BR BKN006
     FM251500 11008KT P6SM SCT025 BKN200=

USA.gov is the U.S. government's official web portal to all federal, state and local government web resources and services.